Marine Rouge — JG5115 — position and weather

sailwx.info

Track history (hours):
 
Tides and Currents Weather Stations Pressure Air Temp Water Temp Dewpoint Dewpoint Depression Visibility Wind Speed Wind Dir Waves Ship Positions

Marine Rouge

Last reported at 2016-Feb-12 12:32 UTC. Time now 2016-Feb-12 22:29 UTC.
Position N 35°27' E 139°39'.

Length 52 m; draft 2.8 m.

Type: Passenger vessel. MMSI: 431000518.

Date/timePositionNaut miles runAvg speedWind from/ knotsBaromVisibWave heightAir tempDewpointWater temp
2016-Feb-12 12:32N 35°27' E 139°39'1 0.9
2016-Feb-12 11:33N 35°28' E 139°39'0 0.2
2016-Feb-12 10:33N 35°27' E 139°39'1 0.6
2016-Feb-12 09:33N 35°27' E 139°39'0 0.0
2016-Feb-12 08:33N 35°27' E 139°39'1 0.6
2016-Feb-12 07:33N 35°27' E 139°39'1 0.6
2016-Feb-12 06:33N 35°27' E 139°39'0 0.1
2016-Feb-12 05:34N 35°27' E 139°39'0 0.1
2016-Feb-12 04:33N 35°27' E 139°39'1 0.6
2016-Feb-12 03:33N 35°27' E 139°39'1 0.6
2016-Feb-12 02:33N 35°27' E 139°39'0 0.0
2016-Feb-12 01:33N 35°27' E 139°39'0 0.0
2016-Feb-12 00:33N 35°27' E 139°39'0 0.0
2016-Feb-11 12:31N 35°27' E 139°39'1 0.9
2016-Feb-11 11:33N 35°28' E 139°39'0 0.3
2016-Feb-11 10:33N 35°27' E 139°39'1 0.7
2016-Feb-11 09:33N 35°27' E 139°39'0 0.4
2016-Feb-11 08:33N 35°27' E 139°39'0 0.4
2016-Feb-11 07:33N 35°27' E 139°39'1 0.6
2016-Feb-11 06:33N 35°27' E 139°39'0 0.1
2016-Feb-11 05:34N 35°27' E 139°39'0 0.1
2016-Feb-11 04:33N 35°27' E 139°39'1 0.5
2016-Feb-11 03:33N 35°27' E 139°39'1 0.5
2016-Feb-11 02:33N 35°27' E 139°39'0 0.0
2016-Feb-11 01:33N 35°27' E 139°39'0 0.0
2016-Feb-11 00:33N 35°27' E 139°39'1 0.1
2016-Feb-10 11:33N 35°28' E 139°39'1 1.0
2016-Feb-10 10:33N 35°27' E 139°40'1 1.1
2016-Feb-10 09:33N 35°27' E 139°39'0 0.0
2016-Feb-10 08:34N 35°27' E 139°39'2 2.3
2016-Feb-10 07:33N 35°27' E 139°42'2 2.3
2016-Feb-10 06:33N 35°27' E 139°39'0 0.1
2016-Feb-10 05:33N 35°27' E 139°39'0 0.1
2016-Feb-10 04:33N 35°27' E 139°39'2 2.4
2016-Feb-10 03:34N 35°26' E 139°42'2 2.4
2016-Feb-10 02:33N 35°27' E 139°39'0 0.0
2016-Feb-10 01:33N 35°27' E 139°39'0 0.0
2016-Feb-10 00:34N 35°27' E 139°39'1 0.1
2016-Feb-09 11:34N 35°28' E 139°40'1 0.6
2016-Feb-09 10:33N 35°27' E 139°39'1 0.6
2016-Feb-09 09:33N 35°27' E 139°39'0 0.0
2016-Feb-09 08:34N 35°27' E 139°39'1 0.9
2016-Feb-09 07:34N 35°27' E 139°40'1 0.9
2016-Feb-09 06:34N 35°27' E 139°39'0 0.1
2016-Feb-09 05:34N 35°27' E 139°39'0 0.1
2016-Feb-09 04:33N 35°27' E 139°39'0 0.0
2016-Feb-09 03:34N 35°27' E 139°39'0 0.0
2016-Feb-09 02:34N 35°27' E 139°39'0 0.0
2016-Feb-09 01:34N 35°27' E 139°39'0 0.0
2016-Feb-09 00:33N 35°27' E 139°39'0 0.0
2016-Feb-08 12:25N 35°27' E 139°39'1 0.9
2016-Feb-08 11:33N 35°28' E 139°40'1 0.9
2016-Feb-08 10:33N 35°27' E 139°39'1 0.5
2016-Feb-08 09:33N 35°27' E 139°39'0 0.0
2016-Feb-08 08:33N 35°27' E 139°39'1 0.7
2016-Feb-08 07:33N 35°27' E 139°39'1 0.7
2016-Feb-08 06:33N 35°27' E 139°39'0 0.1
2016-Feb-08 05:34N 35°27' E 139°39'0 0.1
2016-Feb-08 04:33N 35°27' E 139°39'1 0.5
2016-Feb-08 03:33N 35°27' E 139°39'1 0.5
2016-Feb-08 02:33N 35°27' E 139°39'0 0.0
2016-Feb-08 01:33N 35°27' E 139°39'0 0.0
2016-Feb-08 00:33N 35°27' E 139°39'1 0.1
2016-Feb-07 11:33N 35°28' E 139°39'0 0.2
2016-Feb-07 10:33N 35°27' E 139°39'1 0.7
2016-Feb-07 09:33N 35°27' E 139°39'0 0.0
2016-Feb-07 08:34N 35°27' E 139°39'0 0.5
2016-Feb-07 07:34N 35°27' E 139°39'1 0.5
2016-Feb-07 06:33N 35°27' E 139°39'0 0.1
2016-Feb-07 05:34N 35°27' E 139°39'0 0.1
2016-Feb-07 04:33N 35°27' E 139°39'3 2.8
2016-Feb-07 03:33N 35°27' E 139°42'3 2.8
2016-Feb-07 02:33N 35°27' E 139°39'0 0.0
2016-Feb-07 01:33N 35°27' E 139°39'0 0.0
2016-Feb-07 00:33N 35°27' E 139°39'0 0.0
2016-Feb-06 12:34N 35°27' E 139°39'1 0.8
2016-Feb-06 11:34N 35°28' E 139°39'0 0.4
2016-Feb-06 10:34N 35°28' E 139°39'1 0.9
2016-Feb-06 09:34N 35°27' E 139°39'1 0.6
2016-Feb-06 08:34N 35°27' E 139°39'3 3.1
2016-Feb-06 07:33N 35°27' E 139°43'3 2.8
2016-Feb-06 06:34N 35°27' E 139°39'1 0.6
2016-Feb-06 05:34N 35°27' E 139°39'0 0.0
2016-Feb-06 04:33N 35°27' E 139°39'3 3.1
2016-Feb-06 03:34N 35°27' E 139°43'3 3.1
2016-Feb-06 02:34N 35°27' E 139°39'0 0.0
2016-Feb-06 01:34N 35°27' E 139°39'0 0.0
2016-Feb-06 00:34N 35°27' E 139°39'2 0.2
2016-Feb-05 11:34N 35°26' E 139°42'3 2.7
2016-Feb-05 10:34N 35°27' E 139°39'1 0.5
2016-Feb-05 09:33N 35°27' E 139°39'0 0.0
2016-Feb-05 08:33N 35°27' E 139°39'1 0.6
2016-Feb-05 07:33N 35°27' E 139°39'1 0.6
2016-Feb-05 06:33N 35°27' E 139°39'0 0.1
2016-Feb-05 05:33N 35°27' E 139°39'0 0.1
2016-Feb-05 04:33N 35°27' E 139°39'1 0.5
2016-Feb-05 03:34N 35°27' E 139°39'1 0.5
2016-Feb-05 02:33N 35°27' E 139°39'0 0.0
2016-Feb-05 01:33N 35°27' E 139°39'0 0.0
2016-Feb-05 00:33N 35°27' E 139°39'1 0.1
2016-Feb-04 11:33N 35°28' E 139°39'0 0.2
2016-Feb-04 10:33N 35°27' E 139°39'1 0.6
2016-Feb-04 09:33N 35°27' E 139°39'0 0.0
2016-Feb-04 08:33N 35°27' E 139°39'1 0.5
2016-Feb-04 07:34N 35°27' E 139°39'1 0.5
2016-Feb-04 06:33N 35°27' E 139°39'0 0.1
2016-Feb-04 05:33N 35°27' E 139°39'1 0.9
2016-Feb-04 04:33N 35°28' E 139°39'1 1.1
2016-Feb-04 03:33N 35°27' E 139°40'1 0.9
2016-Feb-04 02:33N 35°27' E 139°39'0 0.0
2016-Feb-04 01:33N 35°27' E 139°39'0 0.0
2016-Feb-04 00:33N 35°27' E 139°39'1 0.1
2016-Feb-03 11:34N 35°28' E 139°39'0 0.3
2016-Feb-03 10:33N 35°27' E 139°39'1 0.6
2016-Feb-03 09:33N 35°27' E 139°39'0 0.0
2016-Feb-03 08:34N 35°27' E 139°39'1 0.7
2016-Feb-03 07:33N 35°27' E 139°39'1 0.7
2016-Feb-03 06:34N 35°27' E 139°39'0 0.1
2016-Feb-03 05:33N 35°27' E 139°39'0 0.1
2016-Feb-03 04:34N 35°27' E 139°39'1 0.5
2016-Feb-03 03:33N 35°27' E 139°39'1 0.5
2016-Feb-03 02:34N 35°27' E 139°39'0 0.0
2016-Feb-03 01:34N 35°27' E 139°39'0 0.0
2016-Feb-03 00:34N 35°27' E 139°39'0 0.0
2016-Feb-02 12:33N 35°27' E 139°39'  
Track history (hours):
 
Tides and Currents Weather Stations Pressure Air Temp Water Temp Dewpoint Dewpoint Depression Visibility Wind Speed Wind Dir Waves Ship Positions

Marine Rouge

Last reported at 2016-Feb-12 12:32 UTC. Time now 2016-Feb-12 22:29 UTC.
Position N 35°27' E 139°39'.

Length 52 m; draft 2.8 m.

Type: Passenger vessel. MMSI: 431000518.

Date/timePositionNaut miles runAvg speedWind from/ knotsBaromVisibWave heightAir tempDewpointWater temp
2016-Feb-12 12:32N 35°27' E 139°39'1 0.9
2016-Feb-12 11:33N 35°28' E 139°39'0 0.2
2016-Feb-12 10:33N 35°27' E 139°39'1 0.6
2016-Feb-12 09:33N 35°27' E 139°39'0 0.0
2016-Feb-12 08:33N 35°27' E 139°39'1 0.6
2016-Feb-12 07:33N 35°27' E 139°39'1 0.6
2016-Feb-12 06:33N 35°27' E 139°39'0 0.1
2016-Feb-12 05:34N 35°27' E 139°39'0 0.1
2016-Feb-12 04:33N 35°27' E 139°39'1 0.6
2016-Feb-12 03:33N 35°27' E 139°39'1 0.6
2016-Feb-12 02:33N 35°27' E 139°39'0 0.0
2016-Feb-12 01:33N 35°27' E 139°39'0 0.0
2016-Feb-12 00:33N 35°27' E 139°39'0 0.0
2016-Feb-11 12:31N 35°27' E 139°39'1 0.9
2016-Feb-11 11:33N 35°28' E 139°39'0 0.3
2016-Feb-11 10:33N 35°27' E 139°39'1 0.7
2016-Feb-11 09:33N 35°27' E 139°39'0 0.4
2016-Feb-11 08:33N 35°27' E 139°39'0 0.4
2016-Feb-11 07:33N 35°27' E 139°39'1 0.6
2016-Feb-11 06:33N 35°27' E 139°39'0 0.1
2016-Feb-11 05:34N 35°27' E 139°39'0 0.1
2016-Feb-11 04:33N 35°27' E 139°39'1 0.5
2016-Feb-11 03:33N 35°27' E 139°39'1 0.5
2016-Feb-11 02:33N 35°27' E 139°39'0 0.0
2016-Feb-11 01:33N 35°27' E 139°39'0 0.0
2016-Feb-11 00:33N 35°27' E 139°39'1 0.1
2016-Feb-10 11:33N 35°28' E 139°39'1 1.0
2016-Feb-10 10:33N 35°27' E 139°40'1 1.1
2016-Feb-10 09:33N 35°27' E 139°39'0 0.0
2016-Feb-10 08:34N 35°27' E 139°39'2 2.3
2016-Feb-10 07:33N 35°27' E 139°42'2 2.3
2016-Feb-10 06:33N 35°27' E 139°39'0 0.1
2016-Feb-10 05:33N 35°27' E 139°39'0 0.1
2016-Feb-10 04:33N 35°27' E 139°39'2 2.4
2016-Feb-10 03:34N 35°26' E 139°42'2 2.4
2016-Feb-10 02:33N 35°27' E 139°39'0 0.0
2016-Feb-10 01:33N 35°27' E 139°39'0 0.0
2016-Feb-10 00:34N 35°27' E 139°39'1 0.1
2016-Feb-09 11:34N 35°28' E 139°40'1 0.6
2016-Feb-09 10:33N 35°27' E 139°39'1 0.6
2016-Feb-09 09:33N 35°27' E 139°39'0 0.0
2016-Feb-09 08:34N 35°27' E 139°39'1 0.9
2016-Feb-09 07:34N 35°27' E 139°40'1 0.9
2016-Feb-09 06:34N 35°27' E 139°39'0 0.1
2016-Feb-09 05:34N 35°27' E 139°39'0 0.1
2016-Feb-09 04:33N 35°27' E 139°39'0 0.0
2016-Feb-09 03:34N 35°27' E 139°39'0 0.0
2016-Feb-09 02:34N 35°27' E 139°39'0 0.0
2016-Feb-09 01:34N 35°27' E 139°39'0 0.0
2016-Feb-09 00:33N 35°27' E 139°39'0 0.0
2016-Feb-08 12:25N 35°27' E 139°39'1 0.9
2016-Feb-08 11:33N 35°28' E 139°40'1 0.9
2016-Feb-08 10:33N 35°27' E 139°39'1 0.5
2016-Feb-08 09:33N 35°27' E 139°39'0 0.0
2016-Feb-08 08:33N 35°27' E 139°39'1 0.7
2016-Feb-08 07:33N 35°27' E 139°39'1 0.7
2016-Feb-08 06:33N 35°27' E 139°39'0 0.1
2016-Feb-08 05:34N 35°27' E 139°39'0 0.1
2016-Feb-08 04:33N 35°27' E 139°39'1 0.5
2016-Feb-08 03:33N 35°27' E 139°39'1 0.5
2016-Feb-08 02:33N 35°27' E 139°39'0 0.0
2016-Feb-08 01:33N 35°27' E 139°39'0 0.0
2016-Feb-08 00:33N 35°27' E 139°39'1 0.1
2016-Feb-07 11:33N 35°28' E 139°39'0 0.2
2016-Feb-07 10:33N 35°27' E 139°39'1 0.7
2016-Feb-07 09:33N 35°27' E 139°39'0 0.0
2016-Feb-07 08:34N 35°27' E 139°39'0 0.5
2016-Feb-07 07:34N 35°27' E 139°39'1 0.5
2016-Feb-07 06:33N 35°27' E 139°39'0 0.1
2016-Feb-07 05:34N 35°27' E 139°39'0 0.1
2016-Feb-07 04:33N 35°27' E 139°39'3 2.8
2016-Feb-07 03:33N 35°27' E 139°42'3 2.8
2016-Feb-07 02:33N 35°27' E 139°39'0 0.0
2016-Feb-07 01:33N 35°27' E 139°39'0 0.0
2016-Feb-07 00:33N 35°27' E 139°39'0 0.0
2016-Feb-06 12:34N 35°27' E 139°39'1 0.8
2016-Feb-06 11:34N 35°28' E 139°39'0 0.4
2016-Feb-06 10:34N 35°28' E 139°39'1 0.9
2016-Feb-06 09:34N 35°27' E 139°39'1 0.6
2016-Feb-06 08:34N 35°27' E 139°39'3 3.1
2016-Feb-06 07:33N 35°27' E 139°43'3 2.8
2016-Feb-06 06:34N 35°27' E 139°39'1 0.6
2016-Feb-06 05:34N 35°27' E 139°39'0 0.0
2016-Feb-06 04:33N 35°27' E 139°39'3 3.1
2016-Feb-06 03:34N 35°27' E 139°43'3 3.1
2016-Feb-06 02:34N 35°27' E 139°39'0 0.0
2016-Feb-06 01:34N 35°27' E 139°39'0 0.0
2016-Feb-06 00:34N 35°27' E 139°39'2 0.2
2016-Feb-05 11:34N 35°26' E 139°42'3 2.7
2016-Feb-05 10:34N 35°27' E 139°39'1 0.5
2016-Feb-05 09:33N 35°27' E 139°39'0 0.0
2016-Feb-05 08:33N 35°27' E 139°39'1 0.6
2016-Feb-05 07:33N 35°27' E 139°39'1 0.6
2016-Feb-05 06:33N 35°27' E 139°39'0 0.1
2016-Feb-05 05:33N 35°27' E 139°39'0 0.1
2016-Feb-05 04:33N 35°27' E 139°39'1 0.5
2016-Feb-05 03:34N 35°27' E 139°39'1 0.5
2016-Feb-05 02:33N 35°27' E 139°39'0 0.0
2016-Feb-05 01:33N 35°27' E 139°39'0 0.0
2016-Feb-05 00:33N 35°27' E 139°39'1 0.1
2016-Feb-04 11:33N 35°28' E 139°39'0 0.2
2016-Feb-04 10:33N 35°27' E 139°39'1 0.6
2016-Feb-04 09:33N 35°27' E 139°39'0 0.0
2016-Feb-04 08:33N 35°27' E 139°39'1 0.5
2016-Feb-04 07:34N 35°27' E 139°39'1 0.5
2016-Feb-04 06:33N 35°27' E 139°39'0 0.1
2016-Feb-04 05:33N 35°27' E 139°39'1 0.9
2016-Feb-04 04:33N 35°28' E 139°39'1 1.1
2016-Feb-04 03:33N 35°27' E 139°40'1 0.9
2016-Feb-04 02:33N 35°27' E 139°39'0 0.0
2016-Feb-04 01:33N 35°27' E 139°39'0 0.0
2016-Feb-04 00:33N 35°27' E 139°39'1 0.1
2016-Feb-03 11:34N 35°28' E 139°39'0 0.3
2016-Feb-03 10:33N 35°27' E 139°39'1 0.6
2016-Feb-03 09:33N 35°27' E 139°39'0 0.0
2016-Feb-03 08:34N 35°27' E 139°39'1 0.7
2016-Feb-03 07:33N 35°27' E 139°39'1 0.7
2016-Feb-03 06:34N 35°27' E 139°39'0 0.1
2016-Feb-03 05:33N 35°27' E 139°39'0 0.1
2016-Feb-03 04:34N 35°27' E 139°39'1 0.5
2016-Feb-03 03:33N 35°27' E 139°39'1 0.5
2016-Feb-03 02:34N 35°27' E 139°39'0 0.0
2016-Feb-03 01:34N 35°27' E 139°39'0 0.0
2016-Feb-03 00:34N 35°27' E 139°39'0 0.0
2016-Feb-02 12:33N 35°27' E 139°39'  

Dump ship's entire track history